createdAt,value
2018-03-11T00:00:56.042Z,971.12
2018-03-11T00:01:55.988Z,971.15
2018-03-11T00:02:55.984Z,971.18
2018-03-11T00:03:55.947Z,971.15
2018-03-11T00:04:55.977Z,971.17
2018-03-11T00:05:55.826Z,971.16
2018-03-11T00:06:55.781Z,971.15
2018-03-11T00:07:55.746Z,971.13
2018-03-11T00:08:55.743Z,971.11
2018-03-11T00:09:55.748Z,971.06
2018-03-11T00:10:55.629Z,971.01
2018-03-11T00:11:55.608Z,971.07
2018-03-11T00:12:55.551Z,971.02
2018-03-11T00:13:55.511Z,971.08
2018-03-11T00:14:55.492Z,971.03
2018-03-11T00:15:55.436Z,971.07
2018-03-11T00:16:55.408Z,971.03
2018-03-11T00:17:55.346Z,971.05
2018-03-11T00:18:55.318Z,971.11
2018-03-11T00:19:55.273Z,971.06
2018-03-11T00:20:55.248Z,971.12
2018-03-11T00:21:55.182Z,971.14
2018-03-11T00:22:55.166Z,971.10
2018-03-11T00:23:55.132Z,971.21
2018-03-11T00:24:55.255Z,971.14
2018-03-11T00:25:55.062Z,971.15
2018-03-11T00:26:55.031Z,971.17
2018-03-11T00:27:54.955Z,971.18
2018-03-11T00:28:54.927Z,971.20
2018-03-11T00:29:54.886Z,971.24
2018-03-11T00:30:54.849Z,971.15
2018-03-11T00:31:54.794Z,971.18
2018-03-11T00:32:54.798Z,971.15
2018-03-11T00:33:54.722Z,971.12
2018-03-11T00:34:54.684Z,971.07
2018-03-11T00:35:54.666Z,971.08
2018-03-11T00:36:54.619Z,971.04
2018-03-11T00:37:54.581Z,971.03
2018-03-11T00:38:54.525Z,971.03
2018-03-11T00:39:54.505Z,971.06
2018-03-11T00:40:54.483Z,971.07
2018-03-11T00:41:54.428Z,971.07
2018-03-11T00:42:54.387Z,971.04
2018-03-11T00:43:54.355Z,971.08
2018-03-11T00:44:54.306Z,971.09
2018-03-11T00:45:54.323Z,971.08
2018-03-11T00:46:54.260Z,971.11
2018-03-11T00:47:54.185Z,971.16
2018-03-11T00:48:54.159Z,971.07
2018-03-11T00:49:54.738Z,971.11
2018-03-11T00:50:54.106Z,971.08
2018-03-11T00:51:54.055Z,971.12
2018-03-11T00:52:54.739Z,971.09
2018-03-11T00:53:53.940Z,971.04
2018-03-11T00:54:53.915Z,971.02
2018-03-11T00:55:53.894Z,971.00
2018-03-11T00:56:53.836Z,971.00
2018-03-11T00:57:53.796Z,970.97
2018-03-11T00:58:53.787Z,970.97
2018-03-11T00:59:53.706Z,970.95
2018-03-11T01:00:53.786Z,970.98
2018-03-11T01:01:53.651Z,970.96
2018-03-11T01:02:53.607Z,970.92
2018-03-11T01:03:53.550Z,970.96
2018-03-11T01:04:53.525Z,970.95
2018-03-11T01:05:53.482Z,970.92
2018-03-11T01:06:53.443Z,970.91
2018-03-11T01:07:53.390Z,970.86
2018-03-11T01:08:53.379Z,970.90
2018-03-11T01:09:53.330Z,970.89
2018-03-11T01:10:53.289Z,970.92
2018-03-11T01:11:53.279Z,970.87
2018-03-11T01:12:53.240Z,970.88
2018-03-11T01:13:53.215Z,970.84
2018-03-11T01:14:53.192Z,970.85
2018-03-11T01:15:53.112Z,970.84
2018-03-11T01:16:53.061Z,970.82
2018-03-11T01:17:53.042Z,970.76
2018-03-11T01:18:52.994Z,970.72
2018-03-11T01:19:52.954Z,970.68
2018-03-11T01:20:52.923Z,970.70
2018-03-11T01:21:52.859Z,970.73
2018-03-11T01:22:52.815Z,970.69
2018-03-11T01:23:52.815Z,970.70
2018-03-11T01:24:52.779Z,970.73
2018-03-11T01:25:52.748Z,970.74
2018-03-11T01:26:52.682Z,970.71
2018-03-11T01:27:52.637Z,970.68
2018-03-11T01:28:52.587Z,970.70
2018-03-11T01:29:52.538Z,970.65
2018-03-11T01:30:52.524Z,970.66
2018-03-11T01:31:52.500Z,970.60
2018-03-11T01:32:52.438Z,970.63
2018-03-11T01:33:52.435Z,970.64
2018-03-11T01:34:52.376Z,970.62
2018-03-11T01:35:52.320Z,970.62
2018-03-11T01:36:52.274Z,970.61
2018-03-11T01:37:52.277Z,970.59
2018-03-11T01:38:52.203Z,970.61
2018-03-11T01:39:52.170Z,970.58
2018-03-11T01:40:52.120Z,970.61
2018-03-11T01:41:52.079Z,970.59
2018-03-11T01:42:52.080Z,970.59
2018-03-11T01:43:52.016Z,970.60
2018-03-11T01:44:51.970Z,970.59
2018-03-11T01:45:51.963Z,970.61
2018-03-11T01:46:51.909Z,970.60
2018-03-11T01:47:51.932Z,970.54
2018-03-11T01:48:51.821Z,970.54
2018-03-11T01:49:51.801Z,970.58
2018-03-11T01:50:51.759Z,970.57
2018-03-11T01:51:51.730Z,970.62
2018-03-11T01:52:51.692Z,970.61
2018-03-11T01:53:51.633Z,970.59
2018-03-11T01:54:51.590Z,970.57
2018-03-11T01:55:51.603Z,970.58
2018-03-11T01:56:51.534Z,970.54
2018-03-11T01:57:51.469Z,970.53
2018-03-11T01:58:51.476Z,970.52
2018-03-11T01:59:51.450Z,970.48
2018-03-11T02:00:51.381Z,970.45
2018-03-11T02:01:51.338Z,970.43
2018-03-11T02:02:51.307Z,970.41
2018-03-11T02:03:51.286Z,970.41
2018-03-11T02:04:51.203Z,970.40
2018-03-11T02:05:51.180Z,970.40
2018-03-11T02:06:51.198Z,970.38
2018-03-11T02:07:51.105Z,970.33
2018-03-11T02:08:51.084Z,970.31
2018-03-11T02:09:51.043Z,970.34
2018-03-11T02:10:50.994Z,970.29
2018-03-11T02:11:50.972Z,970.30
2018-03-11T02:12:50.950Z,970.31
2018-03-11T02:13:50.894Z,970.31
2018-03-11T02:14:50.856Z,970.28
2018-03-11T02:15:50.839Z,970.25
2018-03-11T02:16:50.779Z,970.22
2018-03-11T02:17:50.729Z,970.21
2018-03-11T02:18:50.699Z,970.19
2018-03-11T02:19:50.651Z,970.21
2018-03-11T02:20:50.644Z,970.14
2018-03-11T02:21:50.562Z,970.13
2018-03-11T02:22:50.528Z,970.12
2018-03-11T02:23:50.488Z,970.10
2018-03-11T02:24:50.463Z,970.09
2018-03-11T02:25:50.431Z,970.13
2018-03-11T02:26:50.409Z,970.13
2018-03-11T02:27:50.376Z,970.07
2018-03-11T02:28:50.330Z,970.08
2018-03-11T02:29:50.275Z,970.04
2018-03-11T02:30:50.248Z,970.02
2018-03-11T02:31:50.207Z,970.04
2018-03-11T02:32:50.180Z,969.99
2018-03-11T02:33:50.131Z,970.02
2018-03-11T02:34:50.105Z,970.00
2018-03-11T02:35:50.049Z,969.97
2018-03-11T02:36:50.000Z,969.97
2018-03-11T02:37:49.985Z,969.97
2018-03-11T02:38:49.959Z,969.94
2018-03-11T02:39:49.888Z,969.93
2018-03-11T02:40:49.908Z,969.92
2018-03-11T02:41:49.832Z,969.91
2018-03-11T02:42:49.807Z,969.88
2018-03-11T02:43:49.737Z,969.87
2018-03-11T02:44:49.736Z,969.88
2018-03-11T02:45:49.663Z,969.87
2018-03-11T02:46:49.723Z,969.86
2018-03-11T02:47:49.589Z,969.82
2018-03-11T02:48:49.541Z,969.84
2018-03-11T02:49:49.567Z,969.86
2018-03-11T02:50:49.513Z,969.85
2018-03-11T02:51:49.445Z,969.86
2018-03-11T02:52:49.413Z,969.86
2018-03-11T02:53:50.270Z,969.89
2018-03-11T02:54:49.339Z,969.89
2018-03-11T02:55:49.297Z,969.87
2018-03-11T02:56:49.260Z,969.85
2018-03-11T02:57:49.235Z,969.85
2018-03-11T02:58:49.186Z,969.79
2018-03-11T02:59:49.148Z,969.82
2018-03-11T03:00:49.116Z,969.76
2018-03-11T03:01:49.080Z,969.78
2018-03-11T03:02:49.082Z,969.74
2018-03-11T03:03:48.986Z,969.72
2018-03-11T03:04:48.993Z,969.77
2018-03-11T03:05:48.911Z,969.74
2018-03-11T03:06:48.888Z,969.71
2018-03-11T03:07:48.855Z,969.75
2018-03-11T03:08:48.779Z,969.72
2018-03-11T03:09:48.780Z,969.68
2018-03-11T03:10:48.709Z,969.69
2018-03-11T03:11:48.692Z,969.66
2018-03-11T03:12:48.626Z,969.64
2018-03-11T03:13:48.635Z,969.64
2018-03-11T03:14:48.575Z,969.61
2018-03-11T03:15:48.541Z,969.61
2018-03-11T03:16:48.521Z,969.60
2018-03-11T03:17:48.464Z,969.60
2018-03-11T03:18:48.421Z,969.62
2018-03-11T03:19:48.370Z,969.63
2018-03-11T03:20:48.350Z,969.62
2018-03-11T03:21:48.298Z,969.62
2018-03-11T03:22:48.265Z,969.61
2018-03-11T03:23:48.243Z,969.59
2018-03-11T03:24:48.773Z,969.62
2018-03-11T03:25:48.145Z,969.60
2018-03-11T03:26:48.115Z,969.56
2018-03-11T03:27:48.074Z,969.54
2018-03-11T03:28:48.040Z,969.51
2018-03-11T03:29:48.038Z,969.59
2018-03-11T03:30:47.972Z,969.55
2018-03-11T03:31:47.961Z,969.52
2018-03-11T03:32:47.891Z,969.53
2018-03-11T03:33:47.942Z,969.51
2018-03-11T03:34:47.797Z,969.47
2018-03-11T03:35:47.775Z,969.48
2018-03-11T03:36:47.725Z,969.49
2018-03-11T03:37:47.701Z,969.48
2018-03-11T03:38:47.655Z,969.52
2018-03-11T03:39:47.630Z,969.49
2018-03-11T03:40:47.570Z,969.46
2018-03-11T03:41:47.555Z,969.48
2018-03-11T03:42:47.486Z,969.45
2018-03-11T03:43:47.464Z,969.45
2018-03-11T03:44:47.417Z,969.43
2018-03-11T03:45:47.434Z,969.44
2018-03-11T03:46:47.377Z,969.44
2018-03-11T03:47:47.350Z,969.45
2018-03-11T03:48:47.273Z,969.41
2018-03-11T03:49:47.248Z,969.39
2018-03-11T03:50:47.185Z,969.36
2018-03-11T03:51:47.154Z,969.29
2018-03-11T03:52:47.107Z,969.25
2018-03-11T03:53:47.058Z,969.29
2018-03-11T03:54:47.049Z,969.30
2018-03-11T03:55:46.986Z,969.26
2018-03-11T03:56:46.971Z,969.29
2018-03-11T03:57:46.924Z,969.28
2018-03-11T03:58:46.910Z,969.26
2018-03-11T03:59:46.850Z,969.29
2018-03-11T04:00:46.825Z,969.25
2018-03-11T04:01:46.757Z,969.27
2018-03-11T04:02:46.723Z,969.22
2018-03-11T04:03:46.685Z,969.23
2018-03-11T04:04:46.687Z,969.27
2018-03-11T04:05:46.641Z,969.26
2018-03-11T04:06:46.565Z,969.23
2018-03-11T04:07:46.536Z,969.25
2018-03-11T04:08:46.493Z,969.24
2018-03-11T04:09:46.448Z,969.22
2018-03-11T04:10:46.439Z,969.24
2018-03-11T04:11:46.376Z,969.20
2018-03-11T04:12:46.345Z,969.18
2018-03-11T04:13:46.299Z,969.18
2018-03-11T04:14:46.275Z,969.16
2018-03-11T04:15:46.239Z,969.12
2018-03-11T04:16:46.190Z,969.10
2018-03-11T04:17:46.155Z,969.13
2018-03-11T04:18:46.089Z,969.08
2018-03-11T04:19:46.075Z,969.07
2018-03-11T04:20:46.029Z,969.05
2018-03-11T04:21:46.016Z,969.10
2018-03-11T04:22:45.969Z,969.15
2018-03-11T04:23:45.914Z,969.15
2018-03-11T04:24:45.861Z,969.17
2018-03-11T04:25:45.853Z,969.19
2018-03-11T04:26:45.789Z,969.18
2018-03-11T04:27:45.750Z,969.18
2018-03-11T04:28:45.708Z,969.18
2018-03-11T04:29:45.683Z,969.16
2018-03-11T04:30:45.714Z,969.11
2018-03-11T04:31:47.364Z,969.10
2018-03-11T04:32:45.567Z,969.04
2018-03-11T04:33:45.549Z,969.02
2018-03-11T04:34:45.476Z,969.00
2018-03-11T04:35:45.433Z,969.02
2018-03-11T04:36:45.386Z,969.01
2018-03-11T04:37:45.347Z,969.00
2018-03-11T04:38:45.312Z,969.00
2018-03-11T04:39:45.336Z,969.01
2018-03-11T04:40:45.254Z,969.00
2018-03-11T04:41:45.250Z,968.99
2018-03-11T04:42:45.166Z,968.99
2018-03-11T04:43:45.124Z,969.00
2018-03-11T04:44:45.069Z,968.95
2018-03-11T04:45:45.038Z,968.96
2018-03-11T04:46:44.995Z,968.96
2018-03-11T04:47:44.969Z,968.96
2018-03-11T04:48:44.935Z,968.97
2018-03-11T04:49:44.887Z,968.97
2018-03-11T04:50:44.834Z,968.98
2018-03-11T04:51:44.782Z,968.97
2018-03-11T04:52:44.796Z,968.96
2018-03-11T04:53:45.305Z,969.02
2018-03-11T04:54:44.697Z,968.96
2018-03-11T04:55:44.654Z,968.96
2018-03-11T04:56:44.619Z,968.99
2018-03-11T04:57:44.582Z,968.99
2018-03-11T04:58:44.508Z,969.00
2018-03-11T04:59:44.508Z,969.01
2018-03-11T05:00:44.472Z,968.98
2018-03-11T05:01:44.438Z,968.96
2018-03-11T05:02:44.375Z,968.93
2018-03-11T05:03:44.356Z,968.91
2018-03-11T05:04:44.297Z,968.90
2018-03-11T05:05:44.228Z,968.86
2018-03-11T05:06:44.219Z,968.88
2018-03-11T05:07:44.169Z,968.87
2018-03-11T05:08:44.122Z,968.88
2018-03-11T05:09:44.135Z,968.86
2018-03-11T05:10:44.052Z,968.90
2018-03-11T05:11:43.994Z,968.92
2018-03-11T05:12:43.964Z,968.89
2018-03-11T05:13:43.907Z,968.92
2018-03-11T05:14:43.898Z,968.92
2018-03-11T05:15:43.825Z,968.93
2018-03-11T05:16:43.840Z,968.95
2018-03-11T05:17:43.766Z,968.91
2018-03-11T05:18:43.746Z,968.91
2018-03-11T05:19:43.680Z,968.88
2018-03-11T05:20:43.667Z,968.92
2018-03-11T05:21:43.606Z,968.91
2018-03-11T05:22:43.544Z,968.92
2018-03-11T05:23:43.510Z,968.89
2018-03-11T05:24:43.459Z,968.90
2018-03-11T05:25:43.447Z,968.88
2018-03-11T05:26:43.428Z,968.88
2018-03-11T05:27:43.426Z,968.90
2018-03-11T05:28:43.307Z,968.90
2018-03-11T05:29:43.300Z,968.89
2018-03-11T05:30:43.217Z,968.89
2018-03-11T05:31:43.175Z,968.91
2018-03-11T05:32:43.147Z,968.93
2018-03-11T05:33:43.101Z,968.88
2018-03-11T05:34:43.122Z,968.87
2018-03-11T05:35:43.030Z,968.88
2018-03-11T05:36:42.983Z,968.88
2018-03-11T05:37:42.960Z,968.88
2018-03-11T05:38:42.917Z,968.88
2018-03-11T05:39:42.850Z,968.90
2018-03-11T05:40:42.814Z,968.84
2018-03-11T05:41:42.767Z,968.85
2018-03-11T05:42:42.747Z,968.85
2018-03-11T05:43:42.694Z,968.87
2018-03-11T05:44:42.667Z,968.92
2018-03-11T05:45:42.613Z,968.89
2018-03-11T05:46:42.627Z,968.90
2018-03-11T05:47:42.605Z,968.89
2018-03-11T05:48:42.504Z,968.90
2018-03-11T05:49:42.482Z,968.87
2018-03-11T05:50:42.447Z,968.91
2018-03-11T05:51:42.384Z,968.89
2018-03-11T05:52:42.336Z,968.91
2018-03-11T05:53:42.321Z,968.88
2018-03-11T05:54:42.241Z,968.90
2018-03-11T05:55:42.189Z,968.88
2018-03-11T05:56:42.171Z,968.86
2018-03-11T05:57:42.112Z,968.84
2018-03-11T05:58:42.076Z,968.81
2018-03-11T05:59:42.028Z,968.84
2018-03-11T06:00:42.058Z,968.85
2018-03-11T06:01:41.970Z,968.79
2018-03-11T06:02:41.957Z,968.75
2018-03-11T06:03:41.890Z,968.72
2018-03-11T06:04:41.823Z,968.69
2018-03-11T06:05:41.793Z,968.63
2018-03-11T06:06:41.777Z,968.65
2018-03-11T06:07:41.693Z,968.67
2018-03-11T06:08:41.666Z,968.66
2018-03-11T06:09:41.663Z,968.75
2018-03-11T06:10:41.577Z,968.67
2018-03-11T06:11:41.530Z,968.70
2018-03-11T06:12:41.492Z,968.71
2018-03-11T06:13:41.459Z,968.77
2018-03-11T06:14:41.418Z,968.75
2018-03-11T06:15:41.415Z,968.78
2018-03-11T06:16:41.336Z,968.80
2018-03-11T06:17:41.294Z,968.78
2018-03-11T06:18:41.260Z,968.78
2018-03-11T06:19:41.285Z,968.87
2018-03-11T06:20:41.188Z,968.89
2018-03-11T06:21:41.135Z,968.87
2018-03-11T06:22:41.142Z,968.87
2018-03-11T06:23:41.084Z,968.84
2018-03-11T06:24:41.026Z,968.81
2018-03-11T06:25:40.947Z,968.82
2018-03-11T06:26:40.928Z,968.84
2018-03-11T06:27:40.904Z,968.89
2018-03-11T06:28:40.825Z,968.87
2018-03-11T06:29:40.788Z,968.90
2018-03-11T06:30:40.759Z,968.90
2018-03-11T06:31:40.731Z,968.92
2018-03-11T06:32:40.691Z,968.90
2018-03-11T06:33:40.638Z,968.89
2018-03-11T06:34:40.623Z,968.82
2018-03-11T06:35:40.552Z,968.83
2018-03-11T06:36:40.527Z,968.86
2018-03-11T06:37:40.476Z,968.86
2018-03-11T06:38:40.421Z,968.86
2018-03-11T06:39:40.398Z,968.88
2018-03-11T06:40:40.364Z,968.82
2018-03-11T06:41:40.292Z,968.86
2018-03-11T06:42:40.294Z,968.88
2018-03-11T06:43:40.208Z,968.90
2018-03-11T06:44:40.194Z,968.91
2018-03-11T06:45:40.160Z,968.94
2018-03-11T06:46:40.109Z,968.97
2018-03-11T06:47:40.141Z,968.99
2018-03-11T06:48:40.057Z,969.00
2018-03-11T06:49:39.994Z,968.99
2018-03-11T06:50:39.982Z,969.05
2018-03-11T06:51:39.894Z,969.05
2018-03-11T06:52:39.870Z,969.07
2018-03-11T06:53:39.811Z,969.10
2018-03-11T06:54:39.763Z,969.06
2018-03-11T06:55:39.758Z,969.06
2018-03-11T06:56:39.688Z,969.03
2018-03-11T06:57:39.675Z,969.00
2018-03-11T06:58:39.620Z,969.02
2018-03-11T06:59:39.576Z,969.02
2018-03-11T07:00:39.562Z,969.00
2018-03-11T07:01:39.481Z,969.01
2018-03-11T07:02:39.498Z,969.02
2018-03-11T07:03:39.423Z,969.08
2018-03-11T07:04:39.370Z,969.07
2018-03-11T07:05:39.338Z,969.07
2018-03-11T07:06:39.321Z,969.11
2018-03-11T07:07:39.244Z,969.08
2018-03-11T07:08:39.203Z,969.07
2018-03-11T07:09:39.156Z,969.06
2018-03-11T07:10:39.184Z,969.02
2018-03-11T07:11:39.091Z,969.02
2018-03-11T07:12:39.080Z,969.01
2018-03-11T07:13:39.019Z,968.96
2018-03-11T07:14:38.985Z,968.92
2018-03-11T07:15:38.941Z,968.89
2018-03-11T07:16:38.910Z,968.89
2018-03-11T07:17:38.868Z,968.89
2018-03-11T07:18:38.804Z,968.89
2018-03-11T07:19:38.770Z,968.91
2018-03-11T07:20:38.753Z,968.91
2018-03-11T07:21:38.707Z,968.87
2018-03-11T07:22:38.665Z,968.88
2018-03-11T07:23:38.625Z,968.87
2018-03-11T07:24:38.598Z,968.86
2018-03-11T07:25:38.549Z,968.90
2018-03-11T07:26:38.503Z,968.87
2018-03-11T07:27:38.484Z,968.92
2018-03-11T07:28:38.455Z,968.91
2018-03-11T07:29:38.424Z,968.98
2018-03-11T07:30:38.394Z,968.94
2018-03-11T07:31:38.368Z,968.91
2018-03-11T07:32:38.328Z,968.90
2018-03-11T07:33:38.322Z,968.85
2018-03-11T07:34:38.245Z,968.76
2018-03-11T07:35:38.261Z,968.75
2018-03-11T07:36:38.225Z,968.73
2018-03-11T07:37:38.182Z,968.69
2018-03-11T07:38:38.130Z,968.67
2018-03-11T07:39:38.112Z,968.73
2018-03-11T07:40:38.072Z,968.69
2018-03-11T07:41:38.052Z,968.67
2018-03-11T07:42:38.026Z,968.70
2018-03-11T07:43:38.020Z,968.70
2018-03-11T07:44:37.937Z,968.65
2018-03-11T07:45:37.919Z,968.66
2018-03-11T07:46:37.875Z,968.63
2018-03-11T07:47:37.846Z,968.66
2018-03-11T07:48:37.826Z,968.64
2018-03-11T07:49:37.796Z,968.66
2018-03-11T07:50:37.772Z,968.67
2018-03-11T07:51:37.726Z,968.70
2018-03-11T07:52:37.729Z,968.65
2018-03-11T07:53:37.687Z,968.62
2018-03-11T07:54:37.667Z,968.64
2018-03-11T07:55:37.639Z,968.65
2018-03-11T07:56:37.607Z,968.65
2018-03-11T07:57:37.582Z,968.64
2018-03-11T07:58:37.579Z,968.62
2018-03-11T07:59:37.548Z,968.62
2018-03-11T08:00:37.524Z,968.61
2018-03-11T08:01:37.490Z,968.59
2018-03-11T08:02:37.528Z,968.61
2018-03-11T08:03:37.486Z,968.61
2018-03-11T08:04:37.463Z,968.64
2018-03-11T08:05:37.396Z,968.65
2018-03-11T08:06:37.362Z,968.61
2018-03-11T08:07:37.325Z,968.53
2018-03-11T08:08:37.285Z,968.46
2018-03-11T08:09:37.286Z,968.45
2018-03-11T08:10:37.244Z,968.46
2018-03-11T08:11:38.007Z,968.42
2018-03-11T08:12:37.223Z,968.37
2018-03-11T08:13:37.171Z,968.43
2018-03-11T08:14:37.158Z,968.41
2018-03-11T08:15:37.125Z,968.38
2018-03-11T08:16:37.241Z,968.36
2018-03-11T08:17:37.139Z,968.32
2018-03-11T08:18:37.045Z,968.30
2018-03-11T08:19:37.010Z,968.29
2018-03-11T08:20:37.022Z,968.28
2018-03-11T08:21:37.054Z,968.32
2018-03-11T08:22:36.970Z,968.27
2018-03-11T08:23:36.910Z,968.25
2018-03-11T08:24:36.891Z,968.23
2018-03-11T08:25:36.935Z,968.24
2018-03-11T08:26:36.855Z,968.23
2018-03-11T08:27:36.846Z,968.21
2018-03-11T08:28:36.799Z,968.23
2018-03-11T08:29:36.774Z,968.19
2018-03-11T08:30:36.758Z,968.19
2018-03-11T08:31:36.728Z,968.11
2018-03-11T08:32:36.716Z,968.09
2018-03-11T08:33:36.688Z,968.13
2018-03-11T08:34:36.678Z,968.12
2018-03-11T08:35:36.660Z,968.10
2018-03-11T08:36:36.621Z,968.11
2018-03-11T08:37:36.598Z,968.05
2018-03-11T08:38:36.566Z,968.05
2018-03-11T08:39:36.555Z,968.08
2018-03-11T08:40:36.517Z,968.20
2018-03-11T08:41:36.498Z,968.20
2018-03-11T08:42:36.472Z,968.22
2018-03-11T08:43:36.465Z,968.26
2018-03-11T08:44:36.451Z,968.28
2018-03-11T08:45:36.398Z,968.28
2018-03-11T08:46:36.364Z,968.28
2018-03-11T08:47:36.334Z,968.29
2018-03-11T08:48:36.311Z,968.27
2018-03-11T08:49:36.288Z,968.26
2018-03-11T08:50:36.309Z,968.23
2018-03-11T08:51:36.236Z,968.26
2018-03-11T08:52:36.245Z,968.23
2018-03-11T08:53:36.209Z,968.21
2018-03-11T08:54:36.179Z,968.21
2018-03-11T08:55:36.225Z,968.17
2018-03-11T08:56:36.123Z,968.18
2018-03-11T08:57:36.089Z,968.16
2018-03-11T08:58:36.108Z,968.16
2018-03-11T08:59:36.047Z,968.13
2018-03-11T09:00:36.063Z,968.09
2018-03-11T09:01:36.019Z,968.05
2018-03-11T09:02:36.003Z,967.96
2018-03-11T09:03:35.971Z,968.01
2018-03-11T09:04:35.939Z,967.98
2018-03-11T09:05:36.877Z,968.01
2018-03-11T09:06:35.928Z,968.08
2018-03-11T09:07:35.866Z,968.08
2018-03-11T09:08:35.834Z,968.09
2018-03-11T09:09:35.841Z,968.12
2018-03-11T09:10:35.844Z,968.15
2018-03-11T09:11:35.804Z,968.16
2018-03-11T09:12:35.777Z,968.14
2018-03-11T09:13:35.726Z,968.19
2018-03-11T09:14:35.711Z,968.21
2018-03-11T09:15:35.682Z,968.23
2018-03-11T09:16:35.658Z,968.22
2018-03-11T09:17:35.653Z,968.23
2018-03-11T09:18:35.605Z,968.17
2018-03-11T09:19:35.607Z,968.15
2018-03-11T09:20:35.555Z,968.11
2018-03-11T09:21:35.554Z,968.09
2018-03-11T09:22:35.528Z,968.07
2018-03-11T09:23:35.481Z,968.02
2018-03-11T09:24:35.486Z,967.99
2018-03-11T09:25:35.443Z,967.98
2018-03-11T09:26:35.449Z,967.98
2018-03-11T09:27:35.410Z,967.99
2018-03-11T09:28:35.395Z,968.01
2018-03-11T09:29:35.413Z,967.99
2018-03-11T09:30:35.323Z,968.03
2018-03-11T09:31:35.306Z,968.06
2018-03-11T09:32:35.296Z,968.04
2018-03-11T09:33:35.268Z,968.07
2018-03-11T09:34:35.242Z,968.07
2018-03-11T09:35:35.216Z,968.11
2018-03-11T09:36:35.223Z,968.09
2018-03-11T09:37:35.183Z,968.08
2018-03-11T09:38:35.157Z,968.05
2018-03-11T09:39:35.137Z,967.96
2018-03-11T09:40:35.113Z,967.94
2018-03-11T09:41:35.096Z,967.94
2018-03-11T09:42:35.061Z,967.90
2018-03-11T09:43:35.086Z,967.86
2018-03-11T09:44:35.054Z,967.88
2018-03-11T09:45:35.004Z,967.91
2018-03-11T09:46:34.978Z,967.89
2018-03-11T09:47:34.985Z,967.95
2018-03-11T09:48:34.962Z,967.99
2018-03-11T09:49:34.900Z,968.03
2018-03-11T09:50:34.877Z,968.06
2018-03-11T09:51:34.860Z,968.12
2018-03-11T09:52:34.881Z,968.20
2018-03-11T09:53:34.810Z,968.19
2018-03-11T09:54:34.826Z,968.20
2018-03-11T09:55:34.777Z,968.15
2018-03-11T09:56:34.765Z,968.16
2018-03-11T09:57:34.721Z,968.25
2018-03-11T09:58:34.691Z,968.23
2018-03-11T09:59:34.659Z,968.20
2018-03-11T10:00:34.652Z,968.14
2018-03-11T10:01:34.797Z,968.08
2018-03-11T10:02:34.682Z,968.05
2018-03-11T10:03:34.748Z,968.03
2018-03-11T10:04:34.605Z,968.01
2018-03-11T10:05:34.572Z,967.96
2018-03-11T10:06:34.551Z,967.96
2018-03-11T10:07:34.545Z,967.94
2018-03-11T10:08:34.467Z,967.96
2018-03-11T10:09:34.458Z,967.91
2018-03-11T10:10:34.484Z,967.95
2018-03-11T10:11:34.476Z,967.93
2018-03-11T10:12:34.376Z,967.92
2018-03-11T10:13:34.375Z,967.93
2018-03-11T10:14:34.389Z,967.85
2018-03-11T10:15:34.311Z,967.86
2018-03-11T10:16:34.297Z,967.88
2018-03-11T10:17:34.271Z,967.81
2018-03-11T10:18:34.279Z,967.76
2018-03-11T10:19:34.246Z,967.79
2018-03-11T10:20:34.233Z,967.81
2018-03-11T10:21:34.202Z,967.79
2018-03-11T10:22:34.177Z,967.79
2018-03-11T10:23:34.137Z,967.79
2018-03-11T10:24:34.125Z,967.79
2018-03-11T10:25:34.139Z,967.75
2018-03-11T10:26:34.105Z,967.68
2018-03-11T10:27:34.046Z,967.70
2018-03-11T10:28:34.061Z,967.64
2018-03-11T10:29:33.993Z,967.60
2018-03-11T10:30:33.996Z,967.59
2018-03-11T10:31:33.973Z,967.60
2018-03-11T10:32:33.945Z,967.57
2018-03-11T10:33:33.904Z,967.57
2018-03-11T10:34:33.900Z,967.55
2018-03-11T10:35:33.860Z,967.51
2018-03-11T10:36:33.831Z,967.49
2018-03-11T10:37:33.838Z,967.53
2018-03-11T10:38:33.794Z,967.53
2018-03-11T10:39:33.770Z,967.53
2018-03-11T10:40:33.760Z,967.49
2018-03-11T10:41:33.722Z,967.49
2018-03-11T10:42:33.696Z,967.45
2018-03-11T10:43:33.673Z,967.43
2018-03-11T10:44:33.648Z,967.40
2018-03-11T10:45:33.621Z,967.37
2018-03-11T10:46:33.614Z,967.36
2018-03-11T10:47:33.583Z,967.33
2018-03-11T10:48:33.550Z,967.32
2018-03-11T10:49:33.545Z,967.22
2018-03-11T10:50:33.531Z,967.16
2018-03-11T10:51:33.484Z,967.15
2018-03-11T10:52:33.478Z,967.17
2018-03-11T10:53:33.432Z,967.09
2018-03-11T10:54:33.452Z,967.05
2018-03-11T10:55:33.424Z,967.04
2018-03-11T10:56:33.386Z,966.99
2018-03-11T10:57:33.398Z,967.02
2018-03-11T10:58:33.330Z,967.03
2018-03-11T10:59:33.304Z,966.97
2018-03-11T11:00:33.294Z,966.92
2018-03-11T11:01:33.284Z,966.89
2018-03-11T11:02:33.269Z,966.78
2018-03-11T11:03:33.237Z,966.82
2018-03-11T11:04:33.195Z,966.75
2018-03-11T11:05:33.190Z,966.71
2018-03-11T11:06:33.177Z,966.71
2018-03-11T11:07:33.142Z,966.67
2018-03-11T11:08:33.137Z,966.70
2018-03-11T11:09:33.114Z,966.63
2018-03-11T11:10:33.110Z,966.59
2018-03-11T11:11:33.065Z,966.55
2018-03-11T11:12:33.055Z,966.53
2018-03-11T11:13:33.077Z,966.54
2018-03-11T11:14:33.004Z,966.50
2018-03-11T11:15:32.993Z,966.53
2018-03-11T11:16:32.959Z,966.54
2018-03-11T11:17:32.948Z,966.53
2018-03-11T11:18:32.921Z,966.53
2018-03-11T11:19:32.917Z,966.51
2018-03-11T11:20:32.878Z,966.54
2018-03-11T11:21:32.872Z,966.46
2018-03-11T11:22:32.867Z,966.48
2018-03-11T11:23:32.829Z,966.51
2018-03-11T11:24:32.851Z,966.57
2018-03-11T11:25:32.911Z,966.54
2018-03-11T11:26:32.770Z,966.56
2018-03-11T11:27:32.756Z,966.61
2018-03-11T11:28:32.733Z,966.60
2018-03-11T11:29:32.741Z,966.58
2018-03-11T11:30:32.695Z,966.65
2018-03-11T11:31:32.672Z,966.62
2018-03-11T11:32:32.652Z,966.58
2018-03-11T11:33:34.537Z,966.54
2018-03-11T11:34:32.611Z,966.57
2018-03-11T11:35:32.597Z,966.60
2018-03-11T11:36:32.601Z,966.66
2018-03-11T11:37:32.572Z,966.64
2018-03-11T11:38:32.549Z,966.60
2018-03-11T11:39:32.524Z,966.64
2018-03-11T11:40:32.494Z,966.51
2018-03-11T11:41:32.480Z,966.51
2018-03-11T11:42:32.458Z,966.46
2018-03-11T11:43:32.434Z,966.45
2018-03-11T11:44:32.413Z,966.44
2018-03-11T11:45:32.409Z,966.43
2018-03-11T11:46:32.390Z,966.53
2018-03-11T11:47:32.364Z,966.47
2018-03-11T11:48:32.368Z,966.52
2018-03-11T11:49:32.324Z,966.40
2018-03-11T11:50:32.354Z,966.44
2018-03-11T11:51:32.311Z,966.45
2018-03-11T11:52:32.260Z,966.40
2018-03-11T11:53:32.253Z,966.39
2018-03-11T11:54:32.222Z,966.36
2018-03-11T11:55:32.282Z,966.27
2018-03-11T11:56:32.173Z,966.38
2018-03-11T11:57:32.153Z,966.41
2018-03-11T11:58:32.145Z,966.41
2018-03-11T11:59:32.118Z,966.36
2018-03-11T12:00:32.087Z,966.38
2018-03-11T12:01:32.053Z,966.36
2018-03-11T12:02:32.038Z,966.36
2018-03-11T12:03:32.019Z,966.39
2018-03-11T12:04:31.995Z,966.36
2018-03-11T12:05:31.973Z,966.43
2018-03-11T12:06:31.963Z,966.39
2018-03-11T12:07:31.928Z,966.41
2018-03-11T12:08:31.913Z,966.36
2018-03-11T12:09:31.886Z,966.35
2018-03-11T12:10:31.894Z,966.40
2018-03-11T12:11:31.854Z,966.39
2018-03-11T12:12:31.833Z,966.37
2018-03-11T12:13:31.792Z,966.36
2018-03-11T12:14:31.782Z,966.35
2018-03-11T12:15:31.747Z,966.37
2018-03-11T12:16:31.752Z,966.30
2018-03-11T12:17:31.720Z,966.32
2018-03-11T12:18:31.688Z,966.30
2018-03-11T12:19:31.672Z,966.26
2018-03-11T12:20:31.648Z,966.26
2018-03-11T12:21:31.619Z,966.26
2018-03-11T12:22:31.622Z,966.29
2018-03-11T12:23:31.575Z,966.24
2018-03-11T12:24:31.541Z,966.23
2018-03-11T12:25:31.532Z,966.24
2018-03-11T12:26:31.540Z,966.11
2018-03-11T12:27:31.491Z,966.06
2018-03-11T12:28:31.457Z,966.08